createdAt,value
2022-11-29T00:08:06.766Z,80.95
2022-11-29T00:16:29.859Z,80.91
2022-11-29T00:24:52.828Z,80.70
2022-11-29T00:33:15.735Z,80.73
2022-11-29T00:41:39.147Z,80.64
2022-11-29T00:50:02.149Z,80.70
2022-11-29T00:58:25.293Z,80.60
2022-11-29T01:06:52.877Z,80.79
2022-11-29T01:15:16.015Z,80.85
2022-11-29T01:23:40.032Z,80.76
2022-11-29T01:32:03.232Z,80.90
2022-11-29T01:40:26.167Z,80.49
2022-11-29T01:48:50.392Z,80.72
2022-11-29T01:57:13.748Z,80.66
2022-11-29T02:05:41.497Z,80.96
2022-11-29T02:14:10.261Z,80.60
2022-11-29T02:22:43.447Z,80.72
2022-11-29T02:31:31.288Z,80.69
2022-11-29T02:40:06.025Z,80.81
2022-11-29T02:48:47.345Z,80.75
2022-11-29T02:57:29.977Z,80.82
2022-11-29T03:06:11.921Z,80.98
2022-11-29T03:15:02.046Z,80.91
2022-11-29T03:23:39.227Z,81.02
2022-11-29T03:32:16.312Z,80.79
2022-11-29T03:40:56.511Z,80.76
2022-11-29T03:49:38.041Z,80.73
2022-11-29T03:58:20.076Z,80.79
2022-11-29T04:07:05.857Z,80.88
2022-11-29T04:15:41.495Z,80.69
2022-11-29T04:24:38.114Z,80.73
2022-11-29T04:33:31.161Z,80.82
2022-11-29T04:42:20.554Z,80.95
2022-11-29T04:50:57.771Z,80.89
2022-11-29T04:59:32.153Z,80.83
2022-11-29T05:17:32.252Z,81.04
2022-11-29T05:26:07.620Z,81.17
2022-11-29T05:34:41.683Z,81.11
2022-11-29T05:43:42.692Z,80.78
2022-11-29T05:52:25.891Z,80.79
2022-11-29T06:01:01.276Z,80.80
2022-11-29T06:09:40.907Z,80.91
2022-11-29T06:18:37.829Z,80.69
2022-11-29T06:27:38.751Z,80.86
2022-11-29T06:36:32.252Z,80.97
2022-11-29T06:44:55.609Z,81.07
2022-11-29T06:53:18.688Z,80.83
2022-11-29T07:01:54.436Z,80.80
2022-11-29T07:10:23.232Z,80.90
2022-11-29T07:54:29.746Z,81.15
2022-11-29T08:02:51.750Z,80.86
2022-11-29T08:11:13.929Z,80.89
2022-11-29T08:19:36.613Z,80.90
2022-11-29T08:27:58.308Z,80.73
2022-11-29T08:36:21.178Z,80.86
2022-11-29T08:44:43.149Z,80.80
2022-11-29T08:53:24.819Z,80.66
2022-11-29T09:01:46.700Z,80.81
2022-11-29T09:10:09.872Z,80.77
2022-11-29T09:18:31.618Z,80.81
2022-11-29T09:26:53.642Z,80.81
2022-11-29T09:35:15.458Z,80.69
2022-11-29T09:43:37.155Z,80.75
2022-11-29T09:52:23.759Z,80.79
2022-11-29T10:00:53.064Z,80.81
2022-11-29T10:09:23.529Z,80.86
2022-11-29T10:18:23.254Z,80.98
2022-11-29T10:26:45.185Z,80.69
2022-11-29T10:35:13.620Z,80.88
2022-11-29T10:43:36.825Z,80.82
2022-11-29T10:51:58.732Z,80.85
2022-11-29T11:00:20.271Z,80.93
2022-11-29T11:08:46.593Z,80.60
2022-11-29T11:17:32.150Z,80.84
2022-11-29T11:26:03.724Z,80.58
2022-11-29T11:34:36.404Z,80.72
2022-11-29T11:43:00.686Z,80.67
2022-11-29T11:51:25.184Z,80.66
2022-11-29T11:59:52.219Z,80.79
2022-11-29T12:08:14.731Z,80.77
2022-11-29T12:16:38.440Z,80.72
2022-11-29T12:25:03.976Z,80.75
2022-11-29T12:33:36.298Z,80.75
2022-11-29T12:42:30.420Z,80.59
2022-11-29T12:51:18.581Z,80.66
2022-11-29T12:59:44.525Z,80.50
2022-11-29T13:08:21.302Z,80.57
2022-11-29T13:17:01.092Z,80.44
2022-11-29T13:25:33.347Z,80.46
2022-11-29T13:34:11.931Z,80.63
2022-11-29T13:42:50.280Z,80.54
2022-11-29T13:51:29.100Z,80.47
2022-11-29T13:59:50.704Z,80.36
2022-11-29T14:08:55.095Z,80.37
2022-11-29T14:17:47.659Z,80.43
2022-11-29T14:26:09.137Z,80.54
2022-11-29T14:34:37.164Z,80.30
2022-11-29T14:43:01.214Z,80.14
2022-11-29T14:51:25.967Z,80.46
2022-11-29T14:59:53.288Z,80.23
2022-11-29T15:08:24.867Z,80.23
2022-11-29T15:16:52.545Z,80.41
2022-11-29T15:25:18.048Z,80.40
2022-11-29T15:33:42.172Z,80.12
2022-11-29T15:42:17.533Z,80.22
2022-11-29T15:50:47.494Z,80.13
2022-11-29T15:59:26.634Z,80.23
2022-11-29T16:07:53.018Z,80.27
2022-11-29T16:16:25.129Z,80.00
2022-11-29T16:25:03.604Z,80.30
2022-11-29T16:33:26.361Z,80.22
2022-11-29T16:42:45.139Z,80.32
2022-11-29T16:51:10.065Z,80.02
2022-11-29T16:59:31.882Z,80.16
2022-11-29T17:07:53.956Z,80.06
2022-11-29T17:16:18.068Z,80.34
2022-11-29T17:24:46.212Z,80.07
2022-11-29T17:33:09.475Z,80.10
2022-11-29T17:41:32.120Z,80.26
2022-11-29T17:49:55.051Z,80.27
2022-11-29T17:58:16.513Z,80.00
2022-11-29T18:06:40.517Z,80.18
2022-11-29T18:15:02.531Z,80.04
2022-11-29T18:23:24.087Z,79.89
2022-11-29T18:31:46.051Z,80.24
2022-11-29T18:40:08.677Z,80.06
2022-11-29T18:48:30.254Z,79.92
2022-11-29T18:56:52.060Z,79.91
2022-11-29T19:05:13.986Z,79.79
2022-11-29T19:13:35.937Z,79.84
2022-11-29T19:21:57.986Z,79.74
2022-11-29T19:30:19.432Z,79.77
2022-11-29T19:38:41.777Z,79.89
2022-11-29T19:47:03.295Z,79.88
2022-11-29T19:55:24.797Z,79.81
2022-11-29T20:03:46.223Z,79.73
2022-11-29T20:12:07.776Z,79.75
2022-11-29T20:20:30.446Z,79.93
2022-11-29T20:28:52.505Z,79.83
2022-11-29T20:37:23.451Z,79.60
2022-11-29T20:45:45.248Z,79.73
2022-11-29T20:54:10.553Z,79.61
2022-11-29T21:02:32.118Z,79.72
2022-11-29T21:11:00.160Z,79.83
2022-11-29T21:19:24.902Z,79.85
2022-11-29T21:27:46.988Z,79.81
2022-11-29T21:36:09.038Z,79.80
2022-11-29T21:44:30.538Z,79.82
2022-11-29T21:52:52.236Z,79.78
2022-11-29T22:01:17.666Z,79.69
2022-11-29T22:09:39.221Z,79.58
2022-11-29T22:18:01.030Z,79.61
2022-11-29T22:26:22.869Z,79.77
2022-11-29T22:34:44.875Z,79.62
